Time;durP1;ratioP1;P1;durP2;ratioP2;P2;SDS_P1;SDS_P2;PMS_P1;PMS_P2;Temp;Humidity;BMP_temperature;BMP_pressure;BME280_temperature;BME280_humidity;BME280_pressure;Samples;Min_cycle;Max_cycle;Signal;HPM_P1;HPM_P2
2022/03/07 00:00:48;;;;;;;43.45;19.10;;;;;;;0.74;65.50;100137.16;5136729;27;20083;-77
2022/03/07 00:03:17;;;;;;;41.65;18.30;;;;;;;0.79;64.82;100132.66;5118659;27;20043;-77
2022/03/07 00:05:44;;;;;;;27.88;15.13;;;;;;;0.73;64.40;100132.72;5136551;27;20042;-77
2022/03/07 00:08:12;;;;;;;27.92;15.07;;;;;;;0.71;64.74;100135.38;5137808;27;20455;-77
2022/03/07 00:10:39;;;;;;;30.70;15.70;;;;;;;0.75;64.39;100133.59;5119309;27;20055;-77
2022/03/07 00:13:07;;;;;;;25.80;13.88;;;;;;;0.79;64.03;100127.34;5117319;28;20047;-77
2022/03/07 00:15:35;;;;;;;49.88;20.02;;;;;;;0.75;63.21;100130.94;5134326;27;20057;-77
2022/03/07 00:18:02;;;;;;;39.30;17.40;;;;;;;0.72;63.12;100133.63;5120436;27;20096;-75
2022/03/07 00:20:31;;;;;;;32.42;16.30;;;;;;;0.76;63.58;100130.03;5134043;27;20112;-77
2022/03/07 00:22:59;;;;;;;29.95;16.38;;;;;;;0.73;64.09;100135.38;5120995;27;20486;-77
2022/03/07 00:25:26;;;;;;;51.92;20.05;;;;;;;0.76;63.74;100124.72;5117058;28;20097;-77
2022/03/07 00:27:54;;;;;;;55.67;20.15;;;;;;;0.74;63.74;100114.97;5132835;27;20061;-77
2022/03/07 00:30:22;;;;;;;44.40;18.70;;;;;;;0.75;64.00;100119.41;5121670;27;20044;-77
2022/03/07 00:32:49;;;;;;;48.25;20.20;;;;;;;0.78;63.98;100120.25;5131682;27;20565;-77
2022/03/07 00:35:17;;;;;;;48.33;20.73;;;;;;;0.76;64.36;100122.06;5122396;27;20051;-77
2022/03/07 00:37:46;;;;;;;31.27;15.80;;;;;;;0.79;64.21;100123.78;5131009;27;20043;-77
2022/03/07 00:40:13;;;;;;;30.90;15.25;;;;;;;0.77;64.38;100117.59;5123023;27;20040;-77
2022/03/07 00:42:41;;;;;;;29.35;15.73;;;;;;;0.77;65.21;100117.59;5129489;27;20043;-77
2022/03/07 00:45:10;;;;;;;28.30;14.70;;;;;;;0.76;64.85;100115.84;5136756;27;20043;-77
2022/03/07 00:47:38;;;;;;;27.80;14.95;;;;;;;0.74;64.46;100115.88;5123958;27;20558;-77
2022/03/07 00:50:06;;;;;;;41.08;17.25;;;;;;;0.76;64.44;100110.53;5116474;28;20050;-77
2022/03/07 00:52:34;;;;;;;30.02;15.98;;;;;;;0.77;64.43;100102.53;5128934;27;20490;-77
2022/03/07 00:55:04;;;;;;;43.55;20.00;;;;;;;0.77;64.15;100101.66;5124409;27;20040;-78
2022/03/07 00:57:31;;;;;;;40.90;18.02;;;;;;;0.79;64.76;100111.38;5128054;27;20043;-77
2022/03/07 00:59:59;;;;;;;30.40;15.95;;;;;;;0.76;64.21;100102.53;5124817;27;20100;-77
2022/03/07 01:02:26;;;;;;;35.83;17.65;;;;;;;0.74;64.57;100104.34;5116345;27;20406;-77
2022/03/07 01:04:55;;;;;;;33.05;17.08;;;;;;;0.78;64.25;100095.44;5127117;27;20047;-77
2022/03/07 01:07:23;;;;;;;35.03;17.67;;;;;;;0.84;63.69;100093.59;5125957;27;20043;-77
2022/03/07 01:09:50;;;;;;;35.67;17.35;;;;;;;0.80;63.83;100093.63;5125350;27;20058;-77
2022/03/07 01:12:20;;;;;;;38.58;18.50;;;;;;;0.74;63.86;100086.63;5126820;27;20043;-77
2022/03/07 01:14:47;;;;;;;35.05;18.17;;;;;;;0.71;63.58;100089.31;5125277;27;20066;-77
2022/03/07 01:17:15;;;;;;;37.47;17.52;;;;;;;0.67;64.36;100087.59;5127166;27;20425;-77
2022/03/07 01:19:42;;;;;;;35.83;17.27;;;;;;;0.76;63.67;100083.94;5124891;27;20046;-77
2022/03/07 01:22:10;;;;;;;40.40;17.60;;;;;;;0.73;63.90;100090.19;5136394;27;20047;-77
2022/03/07 01:24:37;;;;;;;39.00;19.02;;;;;;;0.71;64.16;100084.88;5128312;27;20514;-77
2022/03/07 01:27:05;;;;;;;121.20;49.65;;;;;;;0.71;64.42;100087.53;5115994;28;20047;-77
2022/03/07 01:29:36;;;;;;;301.02;103.72;;;;;;;0.67;64.48;100076.97;5122909;27;20046;-77
2022/03/07 01:32:04;;;;;;;164.38;55.45;;;;;;;0.70;64.31;100076.94;5129445;27;20522;-77
2022/03/07 01:34:31;;;;;;;82.70;32.83;;;;;;;0.68;64.39;100070.75;5122717;27;20455;-77
2022/03/07 01:36:59;;;;;;;61.33;23.95;;;;;;;0.74;64.31;100070.66;5129429;27;20047;-78
2022/03/07 01:39:26;;;;;;;51.50;20.38;;;;;;;0.71;63.88;100070.72;5115650;28;20105;-78
2022/03/07 01:41:54;;;;;;;51.35;21.48;;;;;;;0.63;64.85;100067.28;5121124;27;20393;-77
2022/03/07 01:44:23;;;;;;;42.10;19.90;;;;;;;0.72;64.71;100064.50;5129866;27;20044;-77
2022/03/07 01:46:52;;;;;;;39.63;19.20;;;;;;;0.75;64.47;100061.78;5120541;27;20053;-77
2022/03/07 01:49:20;;;;;;;40.30;19.88;;;;;;;0.71;64.90;100062.72;5130526;27;20525;-77
2022/03/07 01:51:49;;;;;;;37.92;19.35;;;;;;;0.64;65.56;100061.91;5120189;27;20043;-77
2022/03/07 01:54:18;;;;;;;37.88;18.58;;;;;;;0.67;65.47;100055.69;5131077;27;20048;-77
2022/03/07 01:56:48;;;;;;;37.17;20.50;;;;;;;0.71;66.45;100057.41;5119562;27;20039;-77
2022/03/07 01:59:17;;;;;;;37.60;19.50;;;;;;;0.74;66.53;100054.72;5126943;27;20043;-77
2022/03/07 02:01:45;;;;;;;31.67;17.40;;;;;;;0.71;65.91;100052.09;5114922;27;20493;-77
2022/03/07 02:04:14;;;;;;;38.40;18.65;;;;;;;0.70;66.10;100053.00;5115168;27;20157;-78
2022/03/07 02:06:42;;;;;;;29.75;17.38;;;;;;;0.74;66.32;100061.78;5122909;27;20039;-77
2022/03/07 02:09:10;;;;;;;32.53;17.05;;;;;;;0.72;66.05;100053.84;5127916;27;20047;-77
2022/03/07 02:11:38;;;;;;;30.40;16.75;;;;;;;0.80;66.15;100064.38;5121975;27;20444;-78
2022/03/07 02:14:13;;;;;;;28.88;16.38;;;;;;;0.70;66.51;100055.66;5128263;27;20039;-77
2022/03/07 02:16:41;;;;;;;30.88;16.80;;;;;;;0.69;66.43;100062.75;5122395;27;20508;-77
2022/03/07 02:19:09;;;;;;;32.70;17.65;;;;;;;0.62;67.01;100060.19;5127866;27;20048;-77
2022/03/07 02:21:46;;;;;;;31.08;17.88;;;;;;;0.65;66.97;100052.19;5121841;27;20088;-77
2022/03/07 02:24:14;;;;;;;;;;;;;;;0.65;67.55;100057.50;5127924;27;20073;-77
2022/03/07 02:26:42;;;;;;;34.33;19.25;;;;;;;0.66;67.66;100056.59;5122142;27;19928;-77
2022/03/07 02:29:11;;;;;;;32.28;19.40;;;;;;;0.61;67.97;100053.97;5127795;27;20050;-77
2022/03/07 02:31:40;;;;;;;31.92;19.17;;;;;;;0.63;68.02;100051.31;5121525;27;20039;-77
2022/03/07 02:34:08;;;;;;;33.53;18.67;;;;;;;0.64;68.62;100053.06;5127662;27;20062;-77
2022/03/07 02:36:36;;;;;;;28.70;16.45;;;;;;;0.61;68.67;100051.31;5121318;27;20064;-77
2022/03/07 02:39:03;;;;;;;27.98;15.73;;;;;;;0.57;69.61;100047.81;5134996;27;20047;-78
2022/03/07 02:41:32;;;;;;;32.30;17.05;;;;;;;0.65;69.12;100052.19;5128637;27;20051;-77
2022/03/07 02:44:00;;;;;;;31.95;17.95;;;;;;;0.62;69.45;100044.25;5114114;28;20090;-78
2022/03/07 02:46:27;;;;;;;28.65;15.35;;;;;;;0.56;69.99;100043.38;5119630;27;20051;-78
2022/03/07 02:48:55;;;;;;;29.02;14.55;;;;;;;0.58;70.22;100044.25;5129883;27;20050;-77
2022/03/07 02:51:22;;;;;;;26.95;14.18;;;;;;;0.60;70.03;100030.94;5118662;27;20046;-78
2022/03/07 02:53:50;;;;;;;27.83;14.43;;;;;;;0.57;69.91;100031.84;5130558;27;20047;-77
2022/03/07 02:56:18;;;;;;;27.17;14.68;;;;;;;0.60;69.97;100036.28;5113740;27;20173;-78
2022/03/07 02:58:47;;;;;;;23.50;14.25;;;;;;;0.58;69.19;100036.28;5117509;27;20059;-77
2022/03/07 03:01:14;;;;;;;28.23;14.32;;;;;;;0.60;69.97;100032.72;5126850;27;20044;-78
2022/03/07 03:03:42;;;;;;;27.92;14.38;;;;;;;0.57;69.95;100029.19;5121019;27;20103;-78
2022/03/07 03:06:10;;;;;;;26.88;14.38;;;;;;;0.51;70.38;100031.94;5127643;27;20108;-77
2022/03/07 03:08:37;;;;;;;28.35;14.63;;;;;;;0.59;69.54;100042.47;5124370;27;20039;-78
2022/03/07 03:11:05;;;;;;;25.55;13.77;;;;;;;0.57;69.89;100036.31;5124240;27;20047;-77
2022/03/07 03:13:32;;;;;;;26.42;13.70;;;;;;;0.49;69.79;100033.72;5123686;27;20043;-78
2022/03/07 03:16:02;;;;;;;26.95;13.88;;;;;;;0.56;69.49;100024.78;5124824;27;20447;-78
2022/03/07 03:18:29;;;;;;;25.15;13.88;;;;;;;0.63;68.60;100033.56;5113813;28;20131;-77
2022/03/07 03:20:57;;;;;;;28.02;13.82;;;;;;;0.63;68.99;100027.38;5112997;27;20059;-77
2022/03/07 03:23:24;;;;;;;26.92;13.75;;;;;;;0.60;69.37;100030.06;5120573;27;20047;-77
2022/03/07 03:25:52;;;;;;;26.33;13.30;;;;;;;0.58;69.71;100022.13;5125848;27;20083;-78
2022/03/07 03:28:20;;;;;;;28.33;15.00;;;;;;;0.57;69.49;100023.00;5121403;27;20063;-77
2022/03/07 03:30:48;;;;;;;29.08;14.38;;;;;;;0.57;69.46;100015.91;5126105;27;20113;-77
2022/03/07 03:33:17;;;;;;;29.67;14.05;;;;;;;0.56;69.82;100016.81;5120453;27;20055;-77
2022/03/07 03:35:45;;;;;;;29.02;14.32;;;;;;;0.58;69.07;100011.47;5128634;27;20054;-77
2022/03/07 03:38:12;;;;;;;23.90;13.55;;;;;;;0.58;68.89;100011.47;5119624;27;20116;-78
2022/03/07 03:40:40;;;;;;;27.02;13.88;;;;;;;0.54;68.83;100000.00;5127695;27;20490;-77
2022/03/07 03:43:08;;;;;;;27.45;14.38;;;;;;;0.51;69.03;100000.03;5119288;28;20039;-77
2022/03/07 03:45:35;;;;;;;23.92;13.38;;;;;;;0.56;68.98;100003.50;5128275;27;20040;-77
2022/03/07 03:48:03;;;;;;;26.40;14.05;;;;;;;0.57;68.97;99997.28;5118351;27;20053;-77
2022/03/07 03:50:32;;;;;;;24.85;13.65;;;;;;;0.56;68.76;99997.34;5129031;27;20391;-77
2022/03/07 03:53:00;;;;;;;27.75;13.68;;;;;;;0.58;68.92;100007.03;5117649;27;20907;-77
2022/03/07 03:55:27;;;;;;;25.80;13.45;;;;;;;0.54;68.21;100000.00;5134020;27;20043;-77
2022/03/07 03:57:55;;;;;;;29.17;16.20;;;;;;;0.62;68.13;100004.38;5130020;27;20055;-76
2022/03/07 04:00:23;;;;;;;22.13;12.32;;;;;;;0.63;67.84;99998.16;5113178;28;20066;-77
2022/03/07 04:02:51;;;;;;;24.77;13.18;;;;;;;0.62;67.73;99997.25;5116422;27;20043;-77
2022/03/07 04:05:19;;;;;;;37.97;20.77;;;;;;;0.64;67.96;100000.75;5130896;27;20551;-76
2022/03/07 04:07:48;;;;;;;91.45;40.33;;;;;;;0.65;67.34;100007.84;5115439;28;20071;-77
2022/03/07 04:10:16;;;;;;;77.85;32.90;;;;;;;0.58;67.75;100001.72;5131224;27;20050;-77
2022/03/07 04:12:44;;;;;;;51.97;20.45;;;;;;;0.58;68.30;100000.84;5113182;27;20044;-77
2022/03/07 04:15:13;;;;;;;35.45;15.63;;;;;;;0.57;68.32;99996.44;5114813;28;20044;-77
2022/03/07 04:17:41;;;;;;;38.47;16.50;;;;;;;0.61;68.36;99997.25;5132138;27;20047;-77
2022/03/07 04:20:10;;;;;;;30.33;14.90;;;;;;;0.58;68.21;99996.41;5114086;27;20085;-77
2022/03/07 04:22:38;;;;;;;28.92;14.98;;;;;;;0.66;68.34;99995.44;5132207;27;20043;-77
2022/03/07 04:25:09;;;;;;;27.48;13.73;;;;;;;0.65;67.87;99991.03;5113653;28;20397;-77
2022/03/07 04:27:36;;;;;;;29.20;15.70;;;;;;;0.65;68.05;99983.91;5133068;27;20043;-77
2022/03/07 04:30:05;;;;;;;26.33;13.40;;;;;;;0.55;68.87;99988.47;5112561;28;20507;-77
2022/03/07 04:32:36;;;;;;;26.17;13.82;;;;;;;0.57;68.38;99981.34;5132120;27;20050;-77
2022/03/07 04:35:05;;;;;;;119.15;63.00;;;;;;;0.54;68.59;99978.72;5133125;27;20054;-77
2022/03/07 04:37:34;;;;;;;67.72;35.25;;;;;;;0.57;68.48;99977.81;5112537;27;20127;-76
2022/03/07 04:40:03;;;;;;;66.68;29.95;;;;;;;0.57;68.31;99970.72;5112805;28;20488;-77
2022/03/07 04:42:32;;;;;;;93.18;39.10;;;;;;;0.48;68.15;99975.28;5113121;27;20044;-77
2022/03/07 04:44:59;;;;;;;194.80;80.60;;;;;;;0.53;69.16;99965.47;5119534;27;20043;-77
2022/03/07 04:47:27;;;;;;;30.17;17.00;;;;;;;0.61;68.42;99976.88;5133661;27;20047;-77
2022/03/07 04:49:55;;;;;;;45.40;17.95;;;;;;;0.68;68.11;99967.06;5119323;27;20437;-77
2022/03/07 04:52:22;;;;;;;42.33;22.05;;;;;;;0.63;68.03;99967.09;5134095;27;20481;-77
2022/03/07 04:54:50;;;;;;;42.83;18.27;;;;;;;0.61;68.29;99981.31;5118512;27;20051;-77
2022/03/07 04:57:17;;;;;;;41.10;17.88;;;;;;;0.66;66.93;99988.31;5135056;27;20118;-77
2022/03/07 04:59:47;;;;;;;33.53;16.08;;;;;;;0.60;67.49;99969.81;5117432;27;20040;-77
2022/03/07 05:02:15;;;;;;;31.23;16.35;;;;;;;0.61;67.28;99963.59;5135351;27;20047;-78
2022/03/07 05:04:42;;;;;;;28.73;14.90;;;;;;;0.67;66.52;99962.63;5116689;27;20039;-77
2022/03/07 05:07:10;;;;;;;33.20;14.80;;;;;;;0.75;66.71;99966.06;5136133;27;20042;-77
2022/03/07 05:09:38;;;;;;;26.70;13.60;;;;;;;0.75;66.23;99975.81;5116322;28;20054;-77
2022/03/07 05:12:06;;;;;;;28.92;14.65;;;;;;;0.78;65.58;99974.00;5136801;27;20055;-77
2022/03/07 05:14:33;;;;;;;45.78;20.92;;;;;;;0.77;65.82;99976.66;5119487;27;20047;-77
2022/03/07 05:17:02;;;;;;;51.15;20.17;;;;;;;0.82;65.83;99974.84;5133312;27;20057;-77
2022/03/07 05:19:30;;;;;;;64.78;21.25;;;;;;;0.75;66.21;99971.38;5118329;27;20039;-77
2022/03/07 05:21:58;;;;;;;54.53;21.42;;;;;;;0.71;66.79;99982.97;5132510;27;20043;-79
2022/03/07 05:24:26;;;;;;;73.57;25.60;;;;;;;0.84;65.89;99971.25;5118124;27;20599;-77
2022/03/07 05:26:53;;;;;;;53.17;20.98;;;;;;;0.91;65.39;99977.38;5130163;27;20079;-78
2022/03/07 05:29:22;;;;;;;76.35;26.17;;;;;;;0.88;66.16;99969.44;5113582;27;20048;-77
2022/03/07 05:31:49;;;;;;;275.27;67.57;;;;;;;0.86;66.25;99977.41;5130967;27;20513;-78
2022/03/07 05:34:18;;;;;;;132.02;39.53;;;;;;;0.83;66.10;99972.16;5112046;27;20056;-77
2022/03/07 05:36:46;;;;;;;70.80;22.98;;;;;;;0.79;66.29;99970.44;5131580;27;20524;-79
2022/03/07 05:39:14;;;;;;;42.22;17.15;;;;;;;0.89;65.46;99968.53;5112157;28;20448;-78
2022/03/07 05:41:41;;;;;;;51.75;19.15;;;;;;;0.80;66.23;99965.97;5132182;27;20083;-78
2022/03/07 05:44:09;;;;;;;57.97;18.58;;;;;;;0.80;66.67;99971.28;5111863;27;20045;-78
2022/03/07 05:46:37;;;;;;;72.65;23.60;;;;;;;0.74;66.85;99966.06;5111582;27;20044;-78
2022/03/07 05:49:04;;;;;;;71.68;24.13;;;;;;;0.83;66.90;99965.97;5110964;27;20108;-78
2022/03/07 05:51:33;;;;;;;46.13;17.17;;;;;;;0.90;66.65;99964.97;5111565;28;20058;-78
2022/03/07 05:54:01;;;;;;;58.97;21.00;;;;;;;0.79;66.74;99972.19;5110848;27;20494;-78
2022/03/07 05:56:28;;;;;;;50.70;18.55;;;;;;;0.82;67.05;99965.06;5111558;27;20054;-79
2022/03/07 05:58:56;;;;;;;34.00;13.52;;;;;;;0.99;66.07;99966.59;5111424;27;20422;-78
2022/03/07 06:01:23;;;;;;;56.92;25.20;;;;;;;1.00;66.49;99971.00;5123411;27;20051;-78
2022/03/07 06:03:51;;;;;;;73.53;25.73;;;;;;;0.79;67.33;99965.13;5131205;27;20043;-77
2022/03/07 06:06:18;;;;;;;49.38;19.30;;;;;;;0.83;66.98;99969.47;5128374;27;20112;-78
2022/03/07 06:08:47;;;;;;;38.13;14.60;;;;;;;0.83;67.87;99971.28;5131520;27;20035;-78
2022/03/07 06:11:15;;;;;;;35.58;14.70;;;;;;;0.97;66.82;99971.06;5131211;27;20039;-78
2022/03/07 06:13:43;;;;;;;35.75;14.50;;;;;;;0.86;67.39;99969.44;5131646;27;20043;-78
2022/03/07 06:16:10;;;;;;;34.78;15.52;;;;;;;0.84;67.13;99975.69;5125855;27;20034;-78
2022/03/07 06:18:38;;;;;;;33.05;13.23;;;;;;;0.84;66.58;99965.94;5132527;27;20401;-77
2022/03/07 06:21:06;;;;;;;31.23;14.35;;;;;;;0.99;66.87;99967.47;5134740;27;20047;-78
2022/03/07 06:23:33;;;;;;;47.60;18.65;;;;;;;0.81;67.89;99971.28;5134587;27;20042;-78
2022/03/07 06:26:02;;;;;;;35.88;14.75;;;;;;;0.89;68.28;99963.22;5133203;27;20051;-78
2022/03/07 06:28:30;;;;;;;42.38;18.75;;;;;;;0.93;67.74;99975.56;5135072;27;20401;-78
2022/03/07 06:30:57;;;;;;;35.17;15.18;;;;;;;0.83;68.82;99964.16;5116814;27;20051;-78
2022/03/07 06:33:25;;;;;;;39.28;16.88;;;;;;;0.95;67.65;99975.53;5123746;27;20047;-78
2022/03/07 06:35:53;;;;;;;35.38;15.50;;;;;;;0.81;68.90;99970.41;5133557;27;20053;-78
2022/03/07 06:38:21;;;;;;;43.70;18.73;;;;;;;0.82;69.37;99965.06;5134331;27;20046;-78
2022/03/07 06:40:48;;;;;;;33.45;15.35;;;;;;;0.86;69.17;99964.13;5134945;27;20489;-78
2022/03/07 06:43:17;;;;;;;27.90;12.55;;;;;;;0.96;69.03;99962.22;5134138;27;20046;-78
2022/03/07 06:45:45;;;;;;;34.15;14.88;;;;;;;0.97;68.13;99969.28;5134479;27;20043;-78
2022/03/07 06:48:13;;;;;;;30.85;12.77;;;;;;;1.08;68.18;99968.25;5134321;27;20073;-78
2022/03/07 06:50:41;;;;;;;30.38;13.75;;;;;;;1.01;69.44;99970.09;5114746;27;20559;-78
2022/03/07 06:53:08;;;;;;;28.27;11.93;;;;;;;1.06;69.38;99965.63;5133473;27;20051;-78
2022/03/07 06:55:36;;;;;;;28.15;12.48;;;;;;;1.05;69.41;99966.53;5133969;27;20397;-78
2022/03/07 06:58:04;;;;;;;27.73;12.90;;;;;;;1.08;69.30;99979.78;5134266;27;20047;-78
2022/03/07 07:00:33;;;;;;;28.23;12.43;;;;;;;1.04;70.00;99977.16;5134582;27;20051;-78
2022/03/07 07:03:04;;;;;;;31.90;14.68;;;;;;;1.14;69.89;99982.34;5120996;27;20050;-78
2022/03/07 07:05:32;;;;;;;25.63;11.85;;;;;;;1.22;69.20;99984.00;5133716;27;20054;-78
2022/03/07 07:08:00;;;;;;;31.90;11.32;;;;;;;1.20;68.92;99984.00;5133627;27;20043;-78
2022/03/07 07:10:27;;;;;;;24.35;11.57;;;;;;;1.32;68.73;99988.25;5133805;27;20051;-78
2022/03/07 07:12:55;;;;;;;34.33;14.70;;;;;;;1.27;69.20;99987.47;5116762;27;20085;-77
2022/03/07 07:15:22;;;;;;;24.10;10.95;;;;;;;1.10;70.88;99988.63;5113354;27;20106;-78
2022/03/07 07:17:52;;;;;;;23.85;11.50;;;;;;;1.07;71.25;99993.09;5130224;27;20043;-78
2022/03/07 07:20:19;;;;;;;22.67;10.32;;;;;;;1.24;70.25;99984.84;5117669;27;20050;-78
2022/03/07 07:22:47;;;;;;;26.80;11.20;;;;;;;1.26;70.28;99988.38;5129546;27;20054;-78
2022/03/07 07:25:15;;;;;;;19.27;9.60;;;;;;;1.24;70.81;99991.06;5118564;27;20087;-78
2022/03/07 07:27:42;;;;;;;25.73;11.68;;;;;;;1.15;71.90;99991.19;5113742;27;20047;-78
2022/03/07 07:30:11;;;;;;;24.52;11.38;;;;;;;1.23;71.62;99991.06;5128219;27;20051;-78
2022/03/07 07:32:40;;;;;;;24.83;12.23;;;;;;;1.27;70.91;99984.81;5119412;27;20044;-78
2022/03/07 07:35:10;;;;;;;23.55;10.55;;;;;;;1.36;70.98;99981.13;5127753;27;20047;-78
2022/03/07 07:37:39;;;;;;;18.48;8.57;;;;;;;1.41;70.32;99981.91;5130286;27;20068;-78
2022/03/07 07:40:07;;;;;;;18.98;9.00;;;;;;;1.41;70.52;99980.13;5133864;27;20408;-78
2022/03/07 07:42:35;;;;;;;18.67;8.77;;;;;;;1.34;71.35;99981.13;5119816;27;20065;-78
2022/03/07 07:45:02;;;;;;;19.92;9.10;;;;;;;1.49;71.30;99979.13;5126918;27;20043;-78
2022/03/07 07:47:30;;;;;;;17.23;8.05;;;;;;;1.39;71.42;99979.28;5119823;27;20040;-78
2022/03/07 07:49:58;;;;;;;21.55;10.30;;;;;;;1.63;70.50;99982.44;5113171;28;20048;-78
2022/03/07 07:52:27;;;;;;;33.83;14.98;;;;;;;1.59;70.37;99976.28;5113409;27;20067;-78
2022/03/07 07:55:12;;;;;;;76.20;31.75;;;;;;;1.56;70.81;99972.81;5128315;28;20054;-78
2022/03/07 07:57:41;;;;;;;39.38;17.55;;;;;;;1.54;71.08;99975.47;5119097;27;20044;-78
2022/03/07 08:00:10;;;;;;;20.38;10.18;;;;;;;1.53;71.76;99972.84;5127240;27;20099;-78
2022/03/07 08:02:37;;;;;;;21.65;9.00;;;;;;;1.52;71.04;99977.28;5111876;27;20049;-79
2022/03/07 08:05:06;;;;;;;18.50;7.90;;;;;;;1.53;71.10;99970.19;5109617;27;20320;-78
2022/03/07 08:07:35;;;;;;;17.45;8.15;;;;;;;1.62;71.11;99980.69;5126847;28;20050;-78
2022/03/07 08:10:03;;;;;;;19.35;8.52;;;;;;;1.56;71.82;99983.44;5112276;27;20036;-78
2022/03/07 08:12:30;;;;;;;29.77;11.73;;;;;;;1.70;71.08;99977.91;5126692;28;20054;-78
2022/03/07 08:14:58;;;;;;;31.30;11.13;;;;;;;1.63;71.35;99981.53;5112827;27;20574;-78
2022/03/07 08:17:25;;;;;;;23.75;9.85;;;;;;;1.72;71.04;99981.41;5128415;27;20103;-78
2022/03/07 08:19:53;;;;;;;18.17;7.13;;;;;;;1.64;71.36;99978.00;5121556;27;20052;-78
2022/03/07 08:22:21;;;;;;;13.98;6.45;;;;;;;1.66;71.94;99979.72;5132628;27;20050;-77
2022/03/07 08:24:50;;;;;;;14.77;5.95;;;;;;;1.79;71.48;99968.84;5136028;27;20386;-78
2022/03/07 08:27:17;;;;;;;39.15;13.63;;;;;;;1.72;71.81;99978.75;5136042;27;20505;-78
2022/03/07 08:29:45;;;;;;;29.08;11.23;;;;;;;1.82;71.65;99976.78;5135167;27;20043;-78
2022/03/07 08:32:12;;;;;;;16.08;7.60;;;;;;;1.91;70.97;99968.63;5136177;27;20047;-78
2022/03/07 08:34:40;;;;;;;15.45;6.32;;;;;;;1.85;71.15;99968.75;5135596;27;20047;-78
2022/03/07 08:37:07;;;;;;;18.35;6.70;;;;;;;1.86;70.97;99967.84;5135945;27;20387;-78
2022/03/07 08:39:35;;;;;;;19.02;7.95;;;;;;;1.94;70.76;99965.91;5135662;27;20046;-78
2022/03/07 08:42:05;;;;;;;24.55;8.43;;;;;;;1.87;70.97;99964.28;5135746;27;20043;-78
2022/03/07 08:44:33;;;;;;;14.02;6.68;;;;;;;1.90;70.61;99953.56;5134829;27;20096;-78
2022/03/07 08:47:01;;;;;;;14.73;6.05;;;;;;;1.87;71.20;99964.28;5135582;27;20042;-79
2022/03/07 08:49:29;;;;;;;17.48;6.40;;;;;;;2.06;71.08;99958.56;5135657;27;20497;-78
2022/03/07 08:51:56;;;;;;;12.38;6.47;;;;;;;2.02;70.50;99961.31;5135461;27;20042;-78
2022/03/07 08:54:24;;;;;;;18.13;7.45;;;;;;;2.16;70.13;99962.81;5135346;27;20566;-78
2022/03/07 08:56:51;;;;;;;16.42;7.32;;;;;;;2.24;70.16;99963.53;5132674;27;20039;-79
2022/03/07 08:59:20;;;;;;;16.27;7.32;;;;;;;2.27;70.32;99976.81;5135277;27;20046;-79
2022/03/07 09:01:49;;;;;;;19.13;8.23;;;;;;;2.14;69.85;99969.97;5135425;27;20116;-79
2022/03/07 09:04:16;;;;;;;17.42;7.53;;;;;;;2.12;69.78;99967.34;5136289;27;20039;-79
2022/03/07 09:06:44;;;;;;;29.30;12.95;;;;;;;2.26;69.27;99969.75;5136784;27;20047;-79
2022/03/07 09:09:11;;;;;;;35.92;14.07;;;;;;;2.11;69.27;99968.25;5127063;27;20100;-79
2022/03/07 09:11:39;;;;;;;14.55;6.68;;;;;;;2.15;69.06;99974.38;5115922;28;20044;-79
2022/03/07 09:14:06;;;;;;;15.80;7.93;;;;;;;2.05;69.98;99973.72;5136093;27;20451;-79
2022/03/07 09:16:35;;;;;;;13.85;6.50;;;;;;;2.00;69.86;99964.91;5136122;27;20043;-79
2022/03/07 09:19:03;;;;;;;24.17;10.45;;;;;;;2.09;69.07;99961.19;5134149;27;20047;-79
2022/03/07 09:21:31;;;;;;;19.88;9.57;;;;;;;2.07;69.79;99958.56;5133394;27;20487;-78
2022/03/07 09:23:59;;;;;;;19.65;9.45;;;;;;;2.17;69.63;99960.13;5135884;27;20043;-79
2022/03/07 09:26:26;;;;;;;13.80;7.07;;;;;;;2.19;69.35;99962.75;5135322;27;20540;-78
2022/03/07 09:28:54;;;;;;;13.80;6.43;;;;;;;2.19;69.41;99965.41;5135022;27;20071;-79
2022/03/07 09:31:22;;;;;;;12.55;6.40;;;;;;;1.94;69.18;99965.91;5135982;27;20092;-79
2022/03/07 09:33:51;;;;;;;14.95;6.35;;;;;;;2.06;69.71;99953.25;5132441;27;20054;-81
2022/03/07 09:36:19;;;;;;;12.85;6.38;;;;;;;2.08;69.38;99956.75;5135154;27;20058;-78
2022/03/07 09:38:46;;;;;;;14.30;6.72;;;;;;;1.94;68.84;99967.69;5134575;27;20921;-79
2022/03/07 09:41:14;;;;;;;15.82;7.40;;;;;;;1.91;68.83;99965.06;5134200;27;20070;-78
2022/03/07 09:43:43;;;;;;;38.17;14.30;;;;;;;1.93;69.43;99968.59;5134403;27;20096;-77
2022/03/07 09:46:14;;;;;;;11.85;6.07;;;;;;;1.92;69.77;99966.81;5133263;27;20043;-77
2022/03/07 09:48:42;;;;;;;11.38;5.72;;;;;;;1.87;70.61;99977.59;5133959;27;20131;-77
2022/03/07 09:51:11;;;;;;;10.30;4.28;;;;;;;1.89;69.80;99973.13;5133191;27;20092;-77
2022/03/07 09:53:38;;;;;;;8.48;4.10;;;;;;;1.85;69.46;99966.94;5133486;27;20489;-77
2022/03/07 09:56:06;;;;;;;8.73;3.83;;;;;;;1.84;69.33;99972.31;5133175;27;20047;-77
2022/03/07 09:58:34;;;;;;;8.43;3.70;;;;;;;1.75;69.86;99973.34;5134006;27;20059;-78
2022/03/07 10:01:08;;;;;;;9.02;4.10;;;;;;;1.82;69.80;99971.44;5131421;27;20043;-78
2022/03/07 10:03:36;;;;;;;9.75;4.10;;;;;;;1.88;69.18;99966.03;5132066;27;20138;-78
2022/03/07 10:06:13;;;;;;;6.70;3.38;;;;;;;1.93;67.82;99969.47;5129026;27;20054;-78
2022/03/07 10:08:40;;;;;;;5.53;2.90;;;;;;;1.73;69.47;99970.72;5133253;27;20043;-78
2022/03/07 10:11:10;;;;;;;7.93;3.33;;;;;;;1.85;69.36;99966.09;5131573;27;20100;-77
2022/03/07 10:13:37;;;;;;;7.22;3.30;;;;;;;2.05;68.59;99972.81;5131813;27;20046;-78
2022/03/07 10:16:06;;;;;;;8.07;3.40;;;;;;;1.94;67.79;99970.34;5129235;27;20047;-77
2022/03/07 10:18:34;;;;;;;7.65;3.55;;;;;;;2.08;67.59;99967.41;5131821;27;20538;-78
2022/03/07 10:21:04;;;;;;;14.00;6.18;;;;;;;2.00;68.08;99975.56;5131363;27;20047;-79
2022/03/07 10:23:34;;;;;;;19.25;8.48;;;;;;;2.12;67.64;99970.00;5131097;27;20043;-79
2022/03/07 10:26:09;;;;;;;23.30;10.57;;;;;;;2.20;68.08;99966.31;5129807;27;20051;-79
2022/03/07 10:28:37;;;;;;;15.50;7.68;;;;;;;2.12;67.97;99963.78;5109529;28;20058;-78
2022/03/07 10:31:15;;;;;;;11.20;4.72;;;;;;;2.05;69.11;99965.72;5115445;27;20408;-79
2022/03/07 10:33:42;;;;;;;8.30;3.90;;;;;;;2.02;69.16;99966.63;5129372;27;20050;-78
2022/03/07 10:36:10;;;;;;;9.57;4.07;;;;;;;2.22;68.84;99969.81;5133159;27;20054;-77
2022/03/07 10:38:39;;;;;;;7.97;3.47;;;;;;;2.07;68.89;99973.66;5132923;27;20498;-79
2022/03/07 10:41:07;;;;;;;6.40;3.08;;;;;;;2.08;68.39;99970.09;5129644;27;20051;-79
2022/03/07 10:43:34;;;;;;;7.50;2.83;;;;;;;2.18;67.71;99963.66;5144028;27;20042;-78
2022/03/07 10:46:03;;;;;;;6.28;3.10;;;;;;;2.24;67.60;99963.53;5138245;27;20103;-79
2022/03/07 10:48:41;;;;;;;7.88;3.42;;;;;;;2.18;66.57;99953.00;5133093;27;20043;-79
2022/03/07 10:51:16;;;;;;;8.65;3.33;;;;;;;2.21;66.62;99954.75;5136431;27;20043;-79
2022/03/07 10:53:46;;;;;;;8.63;3.65;;;;;;;2.63;66.54;99954.75;5133539;27;20043;-79
2022/03/07 10:56:15;;;;;;;7.63;3.38;;;;;;;2.68;66.70;99952.00;5134420;27;20063;-78
2022/03/07 10:58:47;;;;;;;7.05;3.10;;;;;;;2.80;65.79;99954.38;5133521;27;20039;-79
2022/03/07 11:01:14;;;;;;;8.75;3.70;;;;;;;2.61;66.29;99952.09;5134763;27;20039;-79
2022/03/07 11:03:42;;;;;;;7.10;3.25;;;;;;;2.61;66.32;99951.22;5130943;27;20046;-79
2022/03/07 11:06:09;;;;;;;8.32;3.70;;;;;;;2.69;66.13;99946.59;5133237;27;20068;-79
2022/03/07 11:08:37;;;;;;;12.65;5.82;;;;;;;2.71;66.80;99943.91;5132976;27;20043;-79
2022/03/07 11:11:06;;;;;;;9.98;4.13;;;;;;;2.71;66.92;99941.25;5133222;27;20039;-81
2022/03/07 11:13:34;;;;;;;6.00;3.15;;;;;;;2.63;67.09;99932.50;5133015;27;20440;-79
2022/03/07 11:16:03;;;;;;;15.70;4.95;;;;;;;2.78;66.09;99931.28;5130075;27;20035;-79
2022/03/07 11:18:32;;;;;;;14.52;5.80;;;;;;;3.05;65.57;99929.78;5132925;27;20043;-79
2022/03/07 11:21:02;;;;;;;68.70;22.52;;;;;;;2.94;65.33;99926.50;5132244;27;20058;-81
2022/03/07 11:23:30;;;;;;;16.95;7.15;;;;;;;2.88;65.93;99923.06;5131863;27;20043;-77
2022/03/07 11:25:59;;;;;;;11.15;4.60;;;;;;;2.84;66.39;99909.81;5132732;27;20046;-80
2022/03/07 11:28:30;;;;;;;21.77;8.23;;;;;;;2.92;66.03;99918.53;5132007;27;20046;-79
2022/03/07 11:30:58;;;;;;;37.35;11.75;;;;;;;2.93;65.79;99908.72;5131746;27;20050;-79